Listerhav — ZDKC7 — position and weather

sailwx.info

Track history (hours):
 
Tides and Currents Weather Stations Pressure Air Temp Water Temp Dewpoint Dewpoint Depression Visibility Wind Speed Wind Dir Waves Ship Positions

Listerhav

Last reported at 2015-Feb-27 21:33 UTC. Time now 2015-Mar-02 16:35 UTC.
Position N 55°19' E 014°33'.

Length 88 m; draft 4 m.

Type: Cargo ship. MMSI: 236591000.

Date/timePositionNaut miles runAvg speedWind from/ knotsBaromVisibWave heightAir tempDewpointWater temp
2015-Feb-27 21:33N 55°19' E 014°33'1111.1
2015-Feb-27 20:34N 55°11' E 014°20'1110.9
2015-Feb-27 19:33N 55°11' E 014°01'1111.0
2015-Feb-27 18:33N 55°12' E 013°41'1111.0
2015-Feb-27 17:33N 55°13' E 013°22'1111.4
2015-Feb-27 16:34N 55°14' E 013°02'1111.1
2015-Feb-27 15:34N 55°17' E 012°43'10 9.7
2015-Feb-27 14:34N 55°26' E 012°40'1110.5
2015-Feb-27 13:33N 55°37' E 012°42'5 4.8
2015-Feb-27 12:32N 55°41' E 012°38'0 0.0
2015-Feb-27 11:32N 55°41' E 012°38'0 0.0
2015-Feb-27 10:32N 55°41' E 012°38'0 0.0
2015-Feb-27 09:32N 55°41' E 012°38'0 0.0
2015-Feb-27 08:32N 55°41' E 012°38'0 0.0
2015-Feb-27 07:31N 55°41' E 012°38'0 0.0
2015-Feb-27 06:31N 55°41' E 012°38'0 0.0
2015-Feb-27 05:31N 55°41' E 012°38'0 0.0
2015-Feb-27 04:31N 55°41' E 012°38'0 0.0
2015-Feb-27 03:31N 55°41' E 012°38'0 0.0
2015-Feb-27 02:31N 55°41' E 012°38'0 0.0
2015-Feb-27 01:31N 55°41' E 012°38'0 0.0
2015-Feb-27 00:31N 55°41' E 012°38'0 0.0
2015-Feb-26 23:31N 55°41' E 012°38'0 0.0
2015-Feb-26 22:31N 55°41' E 012°38'0 0.0
2015-Feb-26 21:31N 55°41' E 012°38'0 0.0
2015-Feb-26 20:31N 55°41' E 012°38'0 0.0
2015-Feb-26 19:31N 55°41' E 012°38'0 0.0
2015-Feb-26 18:31N 55°41' E 012°38'0 0.0
2015-Feb-26 17:31N 55°41' E 012°38'0 0.0
2015-Feb-26 16:28N 55°41' E 012°38'0 0.0
2015-Feb-26 15:31N 55°41' E 012°38'0 0.0
2015-Feb-26 14:31N 55°41' E 012°38'0 0.2
2015-Feb-26 13:31N 55°41' E 012°38'0 0.0
2015-Feb-26 12:31N 55°41' E 012°38'0 0.0
2015-Feb-26 11:31N 55°41' E 012°38'0 0.0
2015-Feb-26 10:31N 55°41' E 012°38'0 0.0
2015-Feb-26 09:31N 55°41' E 012°38'0 0.0
2015-Feb-26 08:31N 55°41' E 012°38'0 0.4
2015-Feb-26 07:34N 55°41' E 012°39'1110.6
2015-Feb-26 06:33N 55°31' E 012°43'1111.0
2015-Feb-26 05:33N 55°20' E 012°41'1010.2
2015-Feb-26 04:33N 55°16' E 012°58'1110.8
2015-Feb-26 03:33N 55°15' E 013°17'1110.8
2015-Feb-26 02:33N 55°15' E 013°36'1110.7
2015-Feb-26 01:33N 55°14' E 013°54'1110.7
2015-Feb-26 00:32N 55°14' E 014°14'1010.4
2015-Feb-25 23:33N 55°21' E 014°27'1110.5
2015-Feb-25 22:29N 55°28' E 014°42'1010.8
2015-Feb-25 21:33N 55°33' E 014°58'36610.0
2015-Feb-24 09:05N 59°38' E 023°25'6 9.9
2015-Feb-24 08:29N 59°40' E 023°36'910.2
2015-Feb-24 07:33N 59°42' E 023°54'1110.2
2015-Feb-24 06:29N 59°45' E 024°15'1010.4
2015-Feb-24 05:33N 59°47' E 024°34'6210.4
2015-Feb-23 23:33N 60°01' E 026°35'109 9.1
2015-Feb-23 11:33N 59°53' E 030°12'1 0.8
2015-Feb-23 10:30N 59°54' E 030°13'0 0.0
2015-Feb-23 09:30N 59°54' E 030°13'0 0.0
2015-Feb-23 08:17N 59°54' E 030°13'0 0.0
2015-Feb-23 06:29N 59°54' E 030°13'0 0.0
2015-Feb-23 05:23N 59°54' E 030°13'0 0.0
2015-Feb-23 04:17N 59°54' E 030°13'0 0.0
2015-Feb-23 03:32N 59°54' E 030°13'0 0.0
2015-Feb-23 02:29N 59°54' E 030°13'0 0.0
2015-Feb-23 01:32N 59°54' E 030°13'0 0.0
2015-Feb-23 00:32N 59°54' E 030°13'0 0.0
2015-Feb-22 23:32N 59°54' E 030°13'0 0.0
2015-Feb-22 22:32N 59°54' E 030°13'0 0.0
2015-Feb-22 21:29N 59°54' E 030°13'0 0.0
2015-Feb-22 20:29N 59°54' E 030°13'0 0.0
2015-Feb-22 19:32N 59°54' E 030°13'0 0.0
2015-Feb-22 18:32N 59°54' E 030°13'0 0.0
2015-Feb-22 17:32N 59°54' E 030°13'0 0.0
2015-Feb-22 16:32N 59°54' E 030°13'0 0.0
2015-Feb-22 15:32N 59°54' E 030°13'0 0.0
2015-Feb-22 14:32N 59°54' E 030°13'0 0.0
2015-Feb-22 13:32N 59°54' E 030°13'0 0.0
2015-Feb-22 12:11N 59°54' E 030°13'0 0.0
2015-Feb-22 11:23N 59°54' E 030°13'0 0.0
2015-Feb-22 10:32N 59°54' E 030°13'0 0.0
2015-Feb-22 09:32N 59°54' E 030°13'0 0.0
2015-Feb-22 08:20N 59°54' E 030°13'0 0.0
2015-Feb-22 06:11N 59°54' E 030°13'0 0.0
2015-Feb-22 05:32N 59°54' E 030°13'0 0.0
2015-Feb-22 04:29N 59°54' E 030°13'0 0.0
2015-Feb-22 03:29N 59°54' E 030°13'0 0.0
2015-Feb-22 02:32N 59°54' E 030°13'0 0.0
2015-Feb-22 01:26N 59°54' E 030°13'0 0.0
2015-Feb-22 00:17N 59°54' E 030°13'0 0.1
2015-Feb-21 22:33N 59°54' E 030°13'1 0.8
2015-Feb-21 21:32N 59°55' E 030°14'0 0.0
2015-Feb-21 20:32N 59°55' E 030°14'0 0.0
2015-Feb-21 19:29N 59°55' E 030°14'0 0.0
2015-Feb-21 18:32N 59°55' E 030°14'0 0.0
2015-Feb-21 17:26N 59°55' E 030°14'0 0.0
2015-Feb-21 16:26N 59°55' E 030°14'0 0.0
2015-Feb-21 15:32N 59°55' E 030°14'0 0.0
2015-Feb-21 14:29N 59°55' E 030°14'0 0.0
2015-Feb-21 13:32N 59°55' E 030°14'0 0.0
2015-Feb-21 12:32N 59°55' E 030°14'0 0.0
2015-Feb-21 11:29N 59°55' E 030°14'0 0.0
2015-Feb-21 10:32N 59°55' E 030°14'0 0.0
2015-Feb-21 09:32N 59°55' E 030°14'0 0.0
2015-Feb-21 08:32N 59°55' E 030°14'0 0.0
2015-Feb-21 07:32N 59°55' E 030°14'0 0.0
2015-Feb-21 06:32N 59°55' E 030°14'0 0.0
2015-Feb-21 05:32N 59°55' E 030°14'0 0.0
2015-Feb-21 04:32N 59°55' E 030°14'0 0.0
2015-Feb-21 03:32N 59°55' E 030°14'0 0.0
2015-Feb-21 02:32N 59°55' E 030°14'0 0.0
2015-Feb-21 01:32N 59°55' E 030°14'0 0.0
2015-Feb-21 00:32N 59°55' E 030°14'0 0.0
2015-Feb-20 23:32N 59°55' E 030°14'0 0.0
2015-Feb-20 22:32N 59°55' E 030°14'0 0.0
2015-Feb-20 21:32N 59°55' E 030°14'0 0.0
2015-Feb-20 20:32N 59°55' E 030°14'0 0.0
2015-Feb-20 19:32N 59°55' E 030°14'0 0.0
2015-Feb-20 18:29N 59°55' E 030°14'0 0.0
2015-Feb-20 17:32N 59°55' E 030°14'0 0.0
2015-Feb-20 16:31N 59°55' E 030°14'0 0.0
2015-Feb-20 15:31N 59°55' E 030°14'0 0.0
2015-Feb-20 14:31N 59°55' E 030°14'0 0.0
2015-Feb-20 13:31N 59°55' E 030°14'0 0.0
2015-Feb-20 12:31N 59°55' E 030°14'0 0.0
2015-Feb-20 11:31N 59°55' E 030°14'0 0.0
2015-Feb-20 10:31N 59°55' E 030°14'0 0.0
2015-Feb-20 09:31N 59°55' E 030°14'0 0.0
2015-Feb-20 08:28N 59°55' E 030°14'2 1.8
2015-Feb-20 07:33N 59°53' E 030°12'98 3.2
2015-Feb-19 01:31N 59°58' E 026°58'1010.0
2015-Feb-19 00:33N 59°59' E 026°39'1010.2
2015-Feb-18 23:33N 59°57' E 026°19'1010.2
2015-Feb-18 22:33N 59°54' E 025°60'4110.2
2015-Feb-18 18:34N 59°43' E 024°42'10 9.9
2015-Feb-18 17:33N 59°39' E 024°24'2010.0
2015-Feb-18 15:33N 59°30' E 023°49'  
Track history (hours):
 
Tides and Currents Weather Stations Pressure Air Temp Water Temp Dewpoint Dewpoint Depression Visibility Wind Speed Wind Dir Waves Ship Positions

Listerhav

Last reported at 2015-Feb-27 21:33 UTC. Time now 2015-Mar-02 16:35 UTC.
Position N 55°19' E 014°33'.

Length 88 m; draft 4 m.

Type: Cargo ship. MMSI: 236591000.

Date/timePositionNaut miles runAvg speedWind from/ knotsBaromVisibWave heightAir tempDewpointWater temp
2015-Feb-27 21:33N 55°19' E 014°33'1111.1
2015-Feb-27 20:34N 55°11' E 014°20'1110.9
2015-Feb-27 19:33N 55°11' E 014°01'1111.0
2015-Feb-27 18:33N 55°12' E 013°41'1111.0
2015-Feb-27 17:33N 55°13' E 013°22'1111.4
2015-Feb-27 16:34N 55°14' E 013°02'1111.1
2015-Feb-27 15:34N 55°17' E 012°43'10 9.7
2015-Feb-27 14:34N 55°26' E 012°40'1110.5
2015-Feb-27 13:33N 55°37' E 012°42'5 4.8
2015-Feb-27 12:32N 55°41' E 012°38'0 0.0
2015-Feb-27 11:32N 55°41' E 012°38'0 0.0
2015-Feb-27 10:32N 55°41' E 012°38'0 0.0
2015-Feb-27 09:32N 55°41' E 012°38'0 0.0
2015-Feb-27 08:32N 55°41' E 012°38'0 0.0
2015-Feb-27 07:31N 55°41' E 012°38'0 0.0
2015-Feb-27 06:31N 55°41' E 012°38'0 0.0
2015-Feb-27 05:31N 55°41' E 012°38'0 0.0
2015-Feb-27 04:31N 55°41' E 012°38'0 0.0
2015-Feb-27 03:31N 55°41' E 012°38'0 0.0
2015-Feb-27 02:31N 55°41' E 012°38'0 0.0
2015-Feb-27 01:31N 55°41' E 012°38'0 0.0
2015-Feb-27 00:31N 55°41' E 012°38'0 0.0
2015-Feb-26 23:31N 55°41' E 012°38'0 0.0
2015-Feb-26 22:31N 55°41' E 012°38'0 0.0
2015-Feb-26 21:31N 55°41' E 012°38'0 0.0
2015-Feb-26 20:31N 55°41' E 012°38'0 0.0
2015-Feb-26 19:31N 55°41' E 012°38'0 0.0
2015-Feb-26 18:31N 55°41' E 012°38'0 0.0
2015-Feb-26 17:31N 55°41' E 012°38'0 0.0
2015-Feb-26 16:28N 55°41' E 012°38'0 0.0
2015-Feb-26 15:31N 55°41' E 012°38'0 0.0
2015-Feb-26 14:31N 55°41' E 012°38'0 0.2
2015-Feb-26 13:31N 55°41' E 012°38'0 0.0
2015-Feb-26 12:31N 55°41' E 012°38'0 0.0
2015-Feb-26 11:31N 55°41' E 012°38'0 0.0
2015-Feb-26 10:31N 55°41' E 012°38'0 0.0
2015-Feb-26 09:31N 55°41' E 012°38'0 0.0
2015-Feb-26 08:31N 55°41' E 012°38'0 0.4
2015-Feb-26 07:34N 55°41' E 012°39'1110.6
2015-Feb-26 06:33N 55°31' E 012°43'1111.0
2015-Feb-26 05:33N 55°20' E 012°41'1010.2
2015-Feb-26 04:33N 55°16' E 012°58'1110.8
2015-Feb-26 03:33N 55°15' E 013°17'1110.8
2015-Feb-26 02:33N 55°15' E 013°36'1110.7
2015-Feb-26 01:33N 55°14' E 013°54'1110.7
2015-Feb-26 00:32N 55°14' E 014°14'1010.4
2015-Feb-25 23:33N 55°21' E 014°27'1110.5
2015-Feb-25 22:29N 55°28' E 014°42'1010.8
2015-Feb-25 21:33N 55°33' E 014°58'36610.0
2015-Feb-24 09:05N 59°38' E 023°25'6 9.9
2015-Feb-24 08:29N 59°40' E 023°36'910.2
2015-Feb-24 07:33N 59°42' E 023°54'1110.2
2015-Feb-24 06:29N 59°45' E 024°15'1010.4
2015-Feb-24 05:33N 59°47' E 024°34'6210.4
2015-Feb-23 23:33N 60°01' E 026°35'109 9.1
2015-Feb-23 11:33N 59°53' E 030°12'1 0.8
2015-Feb-23 10:30N 59°54' E 030°13'0 0.0
2015-Feb-23 09:30N 59°54' E 030°13'0 0.0
2015-Feb-23 08:17N 59°54' E 030°13'0 0.0
2015-Feb-23 06:29N 59°54' E 030°13'0 0.0
2015-Feb-23 05:23N 59°54' E 030°13'0 0.0
2015-Feb-23 04:17N 59°54' E 030°13'0 0.0
2015-Feb-23 03:32N 59°54' E 030°13'0 0.0
2015-Feb-23 02:29N 59°54' E 030°13'0 0.0
2015-Feb-23 01:32N 59°54' E 030°13'0 0.0
2015-Feb-23 00:32N 59°54' E 030°13'0 0.0
2015-Feb-22 23:32N 59°54' E 030°13'0 0.0
2015-Feb-22 22:32N 59°54' E 030°13'0 0.0
2015-Feb-22 21:29N 59°54' E 030°13'0 0.0
2015-Feb-22 20:29N 59°54' E 030°13'0 0.0
2015-Feb-22 19:32N 59°54' E 030°13'0 0.0
2015-Feb-22 18:32N 59°54' E 030°13'0 0.0
2015-Feb-22 17:32N 59°54' E 030°13'0 0.0
2015-Feb-22 16:32N 59°54' E 030°13'0 0.0
2015-Feb-22 15:32N 59°54' E 030°13'0 0.0
2015-Feb-22 14:32N 59°54' E 030°13'0 0.0
2015-Feb-22 13:32N 59°54' E 030°13'0 0.0
2015-Feb-22 12:11N 59°54' E 030°13'0 0.0
2015-Feb-22 11:23N 59°54' E 030°13'0 0.0
2015-Feb-22 10:32N 59°54' E 030°13'0 0.0
2015-Feb-22 09:32N 59°54' E 030°13'0 0.0
2015-Feb-22 08:20N 59°54' E 030°13'0 0.0
2015-Feb-22 06:11N 59°54' E 030°13'0 0.0
2015-Feb-22 05:32N 59°54' E 030°13'0 0.0
2015-Feb-22 04:29N 59°54' E 030°13'0 0.0
2015-Feb-22 03:29N 59°54' E 030°13'0 0.0
2015-Feb-22 02:32N 59°54' E 030°13'0 0.0
2015-Feb-22 01:26N 59°54' E 030°13'0 0.0
2015-Feb-22 00:17N 59°54' E 030°13'0 0.1
2015-Feb-21 22:33N 59°54' E 030°13'1 0.8
2015-Feb-21 21:32N 59°55' E 030°14'0 0.0
2015-Feb-21 20:32N 59°55' E 030°14'0 0.0
2015-Feb-21 19:29N 59°55' E 030°14'0 0.0
2015-Feb-21 18:32N 59°55' E 030°14'0 0.0
2015-Feb-21 17:26N 59°55' E 030°14'0 0.0
2015-Feb-21 16:26N 59°55' E 030°14'0 0.0
2015-Feb-21 15:32N 59°55' E 030°14'0 0.0
2015-Feb-21 14:29N 59°55' E 030°14'0 0.0
2015-Feb-21 13:32N 59°55' E 030°14'0 0.0
2015-Feb-21 12:32N 59°55' E 030°14'0 0.0
2015-Feb-21 11:29N 59°55' E 030°14'0 0.0
2015-Feb-21 10:32N 59°55' E 030°14'0 0.0
2015-Feb-21 09:32N 59°55' E 030°14'0 0.0
2015-Feb-21 08:32N 59°55' E 030°14'0 0.0
2015-Feb-21 07:32N 59°55' E 030°14'0 0.0
2015-Feb-21 06:32N 59°55' E 030°14'0 0.0
2015-Feb-21 05:32N 59°55' E 030°14'0 0.0
2015-Feb-21 04:32N 59°55' E 030°14'0 0.0
2015-Feb-21 03:32N 59°55' E 030°14'0 0.0
2015-Feb-21 02:32N 59°55' E 030°14'0 0.0
2015-Feb-21 01:32N 59°55' E 030°14'0 0.0
2015-Feb-21 00:32N 59°55' E 030°14'0 0.0
2015-Feb-20 23:32N 59°55' E 030°14'0 0.0
2015-Feb-20 22:32N 59°55' E 030°14'0 0.0
2015-Feb-20 21:32N 59°55' E 030°14'0 0.0
2015-Feb-20 20:32N 59°55' E 030°14'0 0.0
2015-Feb-20 19:32N 59°55' E 030°14'0 0.0
2015-Feb-20 18:29N 59°55' E 030°14'0 0.0
2015-Feb-20 17:32N 59°55' E 030°14'0 0.0
2015-Feb-20 16:31N 59°55' E 030°14'0 0.0
2015-Feb-20 15:31N 59°55' E 030°14'0 0.0
2015-Feb-20 14:31N 59°55' E 030°14'0 0.0
2015-Feb-20 13:31N 59°55' E 030°14'0 0.0
2015-Feb-20 12:31N 59°55' E 030°14'0 0.0
2015-Feb-20 11:31N 59°55' E 030°14'0 0.0
2015-Feb-20 10:31N 59°55' E 030°14'0 0.0
2015-Feb-20 09:31N 59°55' E 030°14'0 0.0
2015-Feb-20 08:28N 59°55' E 030°14'2 1.8
2015-Feb-20 07:33N 59°53' E 030°12'98 3.2
2015-Feb-19 01:31N 59°58' E 026°58'1010.0
2015-Feb-19 00:33N 59°59' E 026°39'1010.2
2015-Feb-18 23:33N 59°57' E 026°19'1010.2
2015-Feb-18 22:33N 59°54' E 025°60'4110.2
2015-Feb-18 18:34N 59°43' E 024°42'10 9.9
2015-Feb-18 17:33N 59°39' E 024°24'2010.0
2015-Feb-18 15:33N 59°30' E 023°49'  

Dump ship's entire track history